Time;durP1;ratioP1;P1;durP2;ratioP2;P2;SDS_P1;SDS_P2;PMS_P1;PMS_P2;Temp;Humidity;BMP_temperature;BMP_pressure;BME280_temperature;BME280_humidity;BME280_pressure;Samples;Min_cycle;Max_cycle;Signal;HPM_P1;HPM_P2
2022/11/30 00:00:58;;;;;;;51.93;24.70;;;6.70;99.90;;;;;;4991455;28;20413;-69
2022/11/30 00:03:24;;;;;;;43.57;23.00;;;6.70;99.90;;;;;;4992832;28;20416;-71
2022/11/30 00:05:51;;;;;;;43.97;23.80;;;6.60;99.90;;;;;;4992288;28;20414;-72
2022/11/30 00:08:17;;;;;;;47.60;25.37;;;6.70;99.90;;;;;;4992094;28;20822;-71
2022/11/30 00:10:42;;;;;;;49.27;25.10;;;6.60;99.90;;;;;;4992136;28;20442;-70
2022/11/30 00:13:08;;;;;;;47.40;24.13;;;6.60;99.90;;;;;;4992340;28;20441;-71
2022/11/30 00:15:36;;;;;;;46.93;24.33;;;6.60;99.90;;;;;;4991994;28;20223;-71
2022/11/30 00:18:01;;;;;;;46.33;25.13;;;6.60;99.90;;;;;;4991977;28;20946;-71
2022/11/30 00:20:30;;;;;;;41.87;25.20;;;6.50;99.90;;;;;;4992301;28;20415;-71
2022/11/30 00:22:56;;;;;;;47.63;23.27;;;6.60;99.90;;;;;;4992200;28;20677;-71
2022/11/30 00:25:23;;;;;;;49.07;26.17;;;6.60;99.90;;;;;;4991934;28;20409;-70
2022/11/30 00:27:49;;;;;;;49.93;27.17;;;6.50;99.90;;;;;;4991890;28;20420;-72
2022/11/30 00:30:14;;;;;;;52.53;28.97;;;6.50;99.90;;;;;;4992084;28;20499;-71
2022/11/30 00:32:40;;;;;;;47.33;25.47;;;6.50;99.90;;;;;;4991698;28;20738;-72
2022/11/30 00:35:06;;;;;;;50.97;26.43;;;6.50;99.90;;;;;;4992257;28;20662;-71
2022/11/30 00:37:33;;;;;;;46.67;25.33;;;6.50;99.90;;;;;;4991874;28;20180;-70
2022/11/30 00:39:59;;;;;;;46.50;24.93;;;6.50;99.90;;;;;;4991873;28;20205;-72
2022/11/30 00:42:24;;;;;;;49.87;25.97;;;6.50;99.90;;;;;;4991627;28;20430;-72
2022/11/30 00:44:50;;;;;;;43.53;24.30;;;6.50;99.90;;;;;;4991940;28;20258;-71
2022/11/30 00:47:15;;;;;;;49.53;26.30;;;6.50;99.90;;;;;;4994540;28;20765;-71
2022/11/30 00:49:41;;;;;;;48.90;27.43;;;6.40;99.90;;;;;;4995839;28;20179;-72
2022/11/30 00:52:06;;;;;;;49.27;26.57;;;6.50;99.90;;;;;;4995823;28;20201;-72
2022/11/30 00:54:32;;;;;;;50.50;27.80;;;6.40;99.90;;;;;;4995634;28;20184;-72
2022/11/30 00:56:57;;;;;;;46.83;26.93;;;6.40;99.90;;;;;;4995761;28;20347;-71
2022/11/30 00:59:23;;;;;;;49.20;27.70;;;6.40;99.90;;;;;;4978014;28;20211;-72
2022/11/30 01:01:48;;;;;;;47.27;25.93;;;6.40;99.90;;;;;;4995689;28;20844;-71
2022/11/30 01:04:14;;;;;;;51.20;27.07;;;6.50;99.90;;;;;;4995570;28;20210;-71
2022/11/30 01:06:39;;;;;;;48.27;27.70;;;6.50;99.90;;;;;;4995626;28;20199;-71
2022/11/30 01:09:05;;;;;;;43.80;23.90;;;6.50;99.90;;;;;;4995265;28;20194;-71
2022/11/30 01:11:31;;;;;;;45.70;26.13;;;6.50;99.90;;;;;;4995455;28;20208;-71
2022/11/30 01:13:58;;;;;;;48.63;26.57;;;6.40;99.90;;;;;;4995440;28;20186;-71
2022/11/30 01:16:27;;;;;;;42.63;24.13;;;6.50;99.90;;;;;;4995252;28;20424;-71
2022/11/30 01:18:53;;;;;;;48.20;26.07;;;6.50;99.90;;;;;;4995125;28;20500;-72
2022/11/30 01:21:23;;;;;;;47.17;27.53;;;6.50;99.90;;;;;;4995028;28;20488;-70
2022/11/30 01:23:50;;;;;;;46.70;24.00;;;6.50;99.90;;;;;;4995236;28;20161;-71
2022/11/30 01:26:16;;;;;;;46.90;25.57;;;6.50;99.90;;;;;;4995115;28;20951;-68
2022/11/30 01:28:45;;;;;;;46.17;26.90;;;6.40;99.90;;;;;;4994960;28;20417;-71
2022/11/30 01:31:12;;;;;;;47.77;26.07;;;6.40;99.90;;;;;;4994997;28;20526;-71
2022/11/30 01:33:39;;;;;;;40.47;23.70;;;6.40;99.90;;;;;;4995260;28;20790;-71
2022/11/30 01:36:16;;;;;;;48.57;25.20;;;6.40;99.90;;;;;;4995087;28;20425;-72
2022/11/30 01:38:51;;;;;;;54.40;25.87;;;6.40;99.90;;;;;;4994727;28;20459;-72
2022/11/30 01:41:26;;;;;;;45.30;26.40;;;6.40;99.90;;;;;;4994799;28;20815;-72
2022/11/30 01:43:55;;;;;;;50.37;26.63;;;6.40;99.90;;;;;;4994920;28;20417;-72
2022/11/30 01:46:39;;;;;;;43.60;24.97;;;6.40;99.90;;;;;;4994771;28;20450;-71
2022/11/30 01:49:07;;;;;;;40.93;23.70;;;6.40;99.90;;;;;;4994721;28;20408;-71
2022/11/30 01:51:45;;;;;;;46.70;24.97;;;6.40;99.90;;;;;;4994685;28;20439;-72
2022/11/30 01:54:13;;;;;;;51.93;25.10;;;6.40;99.90;;;;;;4994812;28;20977;-71
2022/11/30 01:56:51;;;;;;;44.90;25.37;;;6.40;99.90;;;;;;4994716;28;20419;-71
2022/11/30 01:59:18;;;;;;;40.50;24.90;;;6.40;99.90;;;;;;4993549;28;20467;-71
2022/11/30 03:32:21;;;;;;;36.50;21.17;;;6.30;99.90;;;;;;5365026;23;20499;-70
2022/11/30 03:34:46;;;;;;;34.20;21.07;;;6.30;99.90;;;;;;4992550;28;21023;-71
2022/11/30 03:37:12;;;;;;;38.20;21.00;;;6.30;99.90;;;;;;4991681;28;20656;-73
2022/11/30 03:39:37;;;;;;;37.67;20.90;;;6.30;99.90;;;;;;4991238;28;20738;-73
2022/11/30 03:42:03;;;;;;;38.63;22.10;;;6.40;99.90;;;;;;4999465;28;20215;-72
2022/11/30 03:44:28;;;;;;;43.80;21.20;;;6.40;99.90;;;;;;5007361;28;20225;-73
2022/11/30 03:46:54;;;;;;;38.70;21.63;;;6.30;99.90;;;;;;4990330;28;20276;-72
2022/11/30 03:49:20;;;;;;;34.90;20.57;;;6.30;99.90;;;;;;5004251;28;20281;-73
2022/11/30 03:51:45;;;;;;;35.70;21.77;;;6.30;99.90;;;;;;5011223;28;20621;-70
2022/11/30 03:54:11;;;;;;;40.23;21.43;;;6.30;99.90;;;;;;5010914;28;20265;-73
2022/11/30 03:56:36;;;;;;;36.40;20.57;;;6.30;99.90;;;;;;5010604;28;20180;-72
2022/11/30 03:59:02;;;;;;;43.47;21.57;;;6.30;99.90;;;;;;5009892;28;20575;-72
2022/11/30 04:01:27;;;;;;;31.43;18.97;;;6.30;99.90;;;;;;5010356;28;20626;-70
2022/11/30 04:03:53;;;;;;;36.63;20.20;;;6.30;99.90;;;;;;5010202;28;20182;-72
2022/11/30 04:06:19;;;;;;;38.10;20.00;;;6.30;99.90;;;;;;5004690;28;20185;-73
2022/11/30 04:08:46;;;;;;;34.57;21.30;;;6.30;99.90;;;;;;5006588;28;20176;-72
2022/11/30 04:11:12;;;;;;;34.70;18.70;;;6.40;99.90;;;;;;5003386;28;20444;-72
2022/11/30 04:13:38;;;;;;;35.87;20.20;;;6.30;99.90;;;;;;5010749;28;20761;-68
2022/11/30 04:16:05;;;;;;;29.87;17.33;;;6.30;99.90;;;;;;5010635;28;20418;-72
2022/11/30 04:18:31;;;;;;;31.17;19.47;;;6.30;99.90;;;;;;5009539;28;21000;-73
2022/11/30 04:20:58;;;;;;;37.30;18.67;;;6.40;99.90;;;;;;5009956;28;20420;-73
2022/11/30 04:23:27;;;;;;;34.83;18.83;;;6.30;99.90;;;;;;5002013;28;20412;-73
2022/11/30 04:25:53;;;;;;;34.10;16.70;;;6.30;99.90;;;;;;5010721;28;20439;-73
2022/11/30 04:28:19;;;;;;;34.93;19.27;;;6.30;99.90;;;;;;5009451;28;20424;-72
2022/11/30 04:30:46;;;;;;;31.13;18.63;;;6.30;99.90;;;;;;5010196;28;20187;-72
2022/11/30 04:33:14;;;;;;;30.33;17.50;;;6.30;99.90;;;;;;5010274;28;20181;-72
2022/11/30 04:39:01;;;;;;;31.33;18.30;;;6.30;99.90;;;;;;5006233;28;20520;-70
2022/11/30 04:41:26;;;;;;;28.00;18.27;;;6.30;99.90;;;;;;5005341;28;20423;-73
2022/11/30 04:43:52;;;;;;;31.97;18.83;;;6.30;99.90;;;;;;5010486;28;20321;-72
2022/11/30 04:46:17;;;;;;;31.17;16.47;;;6.30;99.90;;;;;;5010344;28;20216;-73
2022/11/30 04:48:43;;;;;;;23.27;15.07;;;6.30;99.90;;;;;;5009047;28;20177;-73
2022/11/30 04:51:08;;;;;;;28.03;15.30;;;6.30;99.90;;;;;;5010150;28;20195;-73
2022/11/30 04:53:36;;;;;;;26.17;16.30;;;6.30;99.90;;;;;;5010298;28;20260;-73
2022/11/30 04:56:09;;;;;;;30.40;16.93;;;6.30;99.90;;;;;;5010199;28;20181;-72
2022/11/30 04:58:35;;;;;;;27.87;15.93;;;6.30;99.90;;;;;;5009852;28;20471;-72
2022/11/30 05:01:01;;;;;;;26.00;15.00;;;6.40;99.90;;;;;;5009186;28;20432;-71
2022/11/30 05:03:26;;;;;;;27.67;15.80;;;6.30;99.90;;;;;;5003191;28;20505;-73
2022/11/30 05:05:52;;;;;;;25.80;14.90;;;6.30;99.90;;;;;;5008734;28;20261;-72
2022/11/30 05:08:17;;;;;;;21.27;14.50;;;6.30;99.90;;;;;;5001337;28;20183;-73
2022/11/30 05:10:43;;;;;;;26.80;15.00;;;6.30;99.90;;;;;;5009871;28;20184;-72
2022/11/30 05:13:09;;;;;;;29.67;16.73;;;6.40;99.90;;;;;;5009463;28;20551;-73
2022/11/30 05:15:34;;;;;;;23.37;15.07;;;6.40;99.90;;;;;;4992835;28;20207;-73
2022/11/30 05:18:01;;;;;;;24.17;14.87;;;6.40;99.90;;;;;;5009467;28;20458;-73
2022/11/30 05:20:27;;;;;;;22.80;15.33;;;6.30;99.90;;;;;;5010036;28;20171;-71
2022/11/30 05:22:53;;;;;;;25.03;16.33;;;6.30;99.90;;;;;;5007801;28;20504;-72
2022/11/30 05:25:19;;;;;;;29.50;15.63;;;6.30;99.90;;;;;;5003531;28;20428;-72
2022/11/30 05:27:44;;;;;;;25.20;14.97;;;6.30;99.90;;;;;;5009410;28;20421;-73
2022/11/30 05:30:11;;;;;;;25.33;14.97;;;6.30;99.90;;;;;;5009808;28;20219;-73
2022/11/30 05:32:36;;;;;;;24.07;16.27;;;6.30;99.90;;;;;;5011181;28;20218;-73
2022/11/30 05:35:02;;;;;;;24.70;15.23;;;6.30;99.90;;;;;;5012822;28;20434;-71
2022/11/30 05:37:28;;;;;;;27.67;16.00;;;6.30;99.90;;;;;;5012909;28;20182;-72
2022/11/30 05:39:53;;;;;;;24.77;16.23;;;6.30;99.90;;;;;;5013712;28;20510;-72
2022/11/30 05:42:19;;;;;;;23.87;14.80;;;6.30;99.90;;;;;;5013145;28;20233;-73
2022/11/30 05:44:46;;;;;;;26.03;15.57;;;6.30;99.90;;;;;;5013252;28;20231;-73
2022/11/30 05:47:12;;;;;;;24.60;15.30;;;6.30;99.90;;;;;;5012614;28;20172;-73
2022/11/30 05:49:37;;;;;;;21.83;15.90;;;6.40;99.90;;;;;;5012830;28;20424;-72
2022/11/30 05:52:03;;;;;;;25.10;15.90;;;6.40;99.90;;;;;;5013178;28;20201;-73
2022/11/30 05:54:28;;;;;;;22.47;13.60;;;6.40;99.90;;;;;;5013237;28;20194;-73
2022/11/30 05:56:54;;;;;;;19.97;13.13;;;6.40;99.90;;;;;;5012911;28;20746;-72
2022/11/30 05:59:19;;;;;;;22.70;15.17;;;6.40;99.90;;;;;;5012382;28;20280;-72
2022/11/30 06:01:45;;;;;;;30.43;14.63;;;6.40;99.90;;;;;;5012471;28;20231;-73
2022/11/30 06:04:10;;;;;;;21.83;14.13;;;6.40;99.90;;;;;;5012988;28;20178;-73
2022/11/30 06:06:36;;;;;;;24.57;15.37;;;6.40;99.90;;;;;;5013109;28;20660;-70
2022/11/30 06:09:01;;;;;;;23.10;14.10;;;6.40;99.90;;;;;;5012170;28;20182;-72
2022/11/30 06:11:27;;;;;;;22.50;14.37;;;6.40;99.90;;;;;;5012883;28;20197;-72
2022/11/30 06:13:53;;;;;;;21.50;14.70;;;6.30;99.90;;;;;;5012564;28;20200;-71
2022/11/30 06:16:18;;;;;;;25.07;15.13;;;6.40;99.90;;;;;;5012814;28;20185;-71
2022/11/30 06:18:44;;;;;;;20.07;14.47;;;6.40;99.90;;;;;;5009331;28;20232;-72
2022/11/30 06:21:10;;;;;;;24.87;14.03;;;6.40;99.90;;;;;;5002344;28;20220;-72
2022/11/30 06:23:36;;;;;;;26.60;15.07;;;6.40;99.90;;;;;;5008341;28;20685;-72
2022/11/30 06:26:06;;;;;;;20.63;13.67;;;6.40;99.90;;;;;;4994226;28;20420;-70
2022/11/30 06:28:32;;;;;;;19.93;12.70;;;6.40;99.90;;;;;;5006825;28;20189;-70
2022/11/30 06:30:59;;;;;;;20.80;13.80;;;6.50;99.90;;;;;;5010905;28;20436;-71
2022/11/30 06:33:25;;;;;;;24.53;14.73;;;6.40;99.90;;;;;;5010909;28;20482;-70
2022/11/30 06:35:51;;;;;;;26.27;14.90;;;6.40;99.90;;;;;;5011577;28;20922;-72
2022/11/30 06:38:17;;;;;;;21.30;13.80;;;6.40;99.90;;;;;;5010934;28;20228;-72
2022/11/30 06:40:42;;;;;;;22.10;13.97;;;6.50;99.90;;;;;;5011735;28;20182;-70
2022/11/30 06:43:08;;;;;;;22.27;14.70;;;6.50;99.90;;;;;;5012260;28;20411;-72
2022/11/30 06:45:33;;;;;;;24.87;14.23;;;6.50;99.90;;;;;;5011426;28;20255;-71
2022/11/30 06:47:59;;;;;;;19.73;14.10;;;6.50;99.90;;;;;;5011698;28;20186;-72
2022/11/30 06:50:25;;;;;;;23.40;14.10;;;6.40;99.90;;;;;;5012193;28;20181;-70
2022/11/30 06:52:50;;;;;;;19.97;14.00;;;6.50;99.90;;;;;;5012352;28;20184;-72
2022/11/30 06:55:16;;;;;;;29.87;14.97;;;6.40;99.90;;;;;;5011684;28;20228;-70
2022/11/30 06:57:41;;;;;;;21.63;14.30;;;6.40;99.90;;;;;;5011575;28;20182;-70
2022/11/30 07:00:08;;;;;;;20.57;14.00;;;6.50;99.90;;;;;;5012056;28;20199;-71
2022/11/30 07:02:33;;;;;;;21.77;13.90;;;6.50;99.90;;;;;;5012018;28;20284;-70
2022/11/30 07:04:59;;;;;;;22.97;15.10;;;6.40;99.90;;;;;;5011817;28;20496;-72
2022/11/30 07:07:26;;;;;;;23.50;13.13;;;6.40;99.90;;;;;;5011446;28;20185;-71
2022/11/30 07:09:52;;;;;;;24.03;14.77;;;6.50;99.90;;;;;;5011547;28;20181;-71
2022/11/30 07:12:18;;;;;;;22.30;15.20;;;6.40;99.90;;;;;;5011266;28;20448;-71
2022/11/30 07:14:43;;;;;;;21.97;13.13;;;6.50;99.90;;;;;;5011497;28;20189;-71
2022/11/30 07:17:08;;;;;;;22.93;13.40;;;6.50;99.90;;;;;;5011664;28;20176;-71
2022/11/30 07:19:34;;;;;;;25.87;12.83;;;6.50;99.90;;;;;;5011182;28;20226;-71
2022/11/30 07:22:00;;;;;;;25.30;14.33;;;6.60;99.90;;;;;;5011745;28;20201;-71
2022/11/30 07:27:09;;;;;;;22.47;14.10;;;6.60;99.90;;;;;;5011636;28;20184;-71
2022/11/30 07:29:35;;;;;;;21.13;13.13;;;6.60;99.90;;;;;;5011219;28;20924;-71
2022/11/30 07:32:00;;;;;;;19.03;12.80;;;6.60;99.90;;;;;;5011114;28;20274;-69
2022/11/30 07:34:26;;;;;;;20.57;13.80;;;6.60;99.90;;;;;;5011037;28;20181;-71
2022/11/30 07:36:51;;;;;;;24.47;15.30;;;6.60;99.90;;;;;;5011649;28;20177;-71
2022/11/30 07:39:17;;;;;;;23.30;12.90;;;6.60;99.90;;;;;;5010661;28;20211;-71
2022/11/30 07:41:42;;;;;;;25.20;14.97;;;6.60;99.90;;;;;;5011353;28;20599;-70
2022/11/30 07:44:09;;;;;;;18.70;12.73;;;6.50;99.90;;;;;;5010621;28;20216;-71
2022/11/30 07:46:36;;;;;;;20.23;14.60;;;6.60;99.90;;;;;;5011538;28;20265;-71
2022/11/30 07:49:05;;;;;;;18.57;12.57;;;6.60;99.90;;;;;;5010464;28;20413;-70
2022/11/30 07:51:31;;;;;;;24.07;14.73;;;6.50;99.90;;;;;;5011155;28;20436;-70
2022/11/30 07:53:58;;;;;;;22.03;14.90;;;6.60;99.90;;;;;;5011161;28;20412;-71
2022/11/30 07:56:24;;;;;;;23.67;15.13;;;6.60;99.90;;;;;;5009789;28;20574;-71
2022/11/30 07:58:52;;;;;;;23.60;14.03;;;6.60;99.90;;;;;;5010450;28;20794;-72
2022/11/30 08:01:21;;;;;;;25.37;15.43;;;6.60;99.90;;;;;;5010957;28;20430;-72
2022/11/30 08:03:47;;;;;;;20.50;14.10;;;6.60;99.90;;;;;;5010955;28;20499;-71
2022/11/30 08:06:15;;;;;;;29.03;15.37;;;6.60;99.90;;;;;;5011071;28;20411;-71
2022/11/30 08:08:42;;;;;;;22.40;15.27;;;6.60;99.90;;;;;;5008297;28;20859;-68
2022/11/30 08:11:11;;;;;;;21.83;14.10;;;6.60;99.90;;;;;;5010586;28;20566;-71
2022/11/30 08:13:36;;;;;;;23.10;14.87;;;6.60;99.90;;;;;;5010731;28;20930;-71
2022/11/30 08:16:04;;;;;;;25.13;15.80;;;6.70;99.90;;;;;;5010693;28;20428;-71
2022/11/30 08:18:29;;;;;;;24.60;16.20;;;6.70;99.90;;;;;;5010259;28;20290;-71
2022/11/30 08:21:00;;;;;;;28.03;16.33;;;6.70;99.90;;;;;;5010404;28;20515;-72
2022/11/30 08:23:33;;;;;;;24.30;16.60;;;6.70;99.90;;;;;;5010677;28;20187;-71
2022/11/30 08:26:05;;;;;;;25.30;15.73;;;6.80;99.90;;;;;;5010760;28;20961;-72
2022/11/30 08:28:31;;;;;;;28.03;17.20;;;6.80;99.90;;;;;;5010103;28;20422;-71
2022/11/30 08:31:08;;;;;;;27.83;15.90;;;6.80;99.90;;;;;;5010388;28;20437;-71
2022/11/30 08:33:35;;;;;;;22.80;15.40;;;6.90;99.90;;;;;;5010646;28;20425;-71
2022/11/30 08:36:09;;;;;;;29.67;17.93;;;6.90;99.90;;;;;;5010410;28;20499;-69
2022/11/30 08:38:35;;;;;;;28.87;16.17;;;6.90;99.90;;;;;;5009893;28;20543;-72
2022/11/30 08:41:01;;;;;;;22.83;15.53;;;7.00;99.90;;;;;;5009704;28;20869;-69
2022/11/30 08:43:27;;;;;;;26.00;16.07;;;7.10;99.90;;;;;;5010450;28;20919;-71
2022/11/30 08:45:53;;;;;;;25.93;16.67;;;7.10;99.90;;;;;;5011908;28;20422;-72
2022/11/30 08:48:19;;;;;;;24.20;15.70;;;7.10;99.90;;;;;;5011249;28;20402;-71
2022/11/30 08:50:44;;;;;;;24.67;16.00;;;7.10;99.90;;;;;;5010230;28;20281;-71
2022/11/30 08:53:10;;;;;;;25.03;17.23;;;7.10;99.90;;;;;;5011381;28;20440;-71
2022/11/30 08:55:35;;;;;;;21.97;15.13;;;7.20;99.90;;;;;;5011709;28;20214;-69
2022/11/30 08:58:01;;;;;;;26.37;15.90;;;7.20;99.90;;;;;;5010496;28;20226;-69
2022/11/30 09:00:26;;;;;;;22.97;16.43;;;7.30;99.90;;;;;;5010136;28;20208;-72
2022/11/30 09:02:52;;;;;;;26.03;16.47;;;7.20;99.90;;;;;;5010334;28;20196;-72
2022/11/30 09:05:17;;;;;;;32.10;15.30;;;7.20;99.90;;;;;;5010509;28;20184;-72
2022/11/30 09:07:43;;;;;;;24.30;16.50;;;7.20;99.90;;;;;;5011918;28;20234;-71
2022/11/30 09:10:09;;;;;;;25.07;15.60;;;7.30;99.90;;;;;;5013422;28;20196;-73
2022/11/30 09:12:37;;;;;;;26.10;16.07;;;7.50;99.90;;;;;;5014142;28;20698;-70
2022/11/30 09:15:05;;;;;;;27.97;16.33;;;7.50;99.90;;;;;;5013878;28;20473;-71
2022/11/30 09:17:30;;;;;;;20.37;13.77;;;7.40;99.90;;;;;;5013560;28;20408;-69
2022/11/30 09:19:56;;;;;;;30.30;19.27;;;7.50;99.90;;;;;;5013541;28;20504;-72
2022/11/30 09:22:22;;;;;;;27.17;16.30;;;7.60;99.90;;;;;;5013743;28;20199;-71
2022/11/30 09:24:47;;;;;;;25.97;16.10;;;7.60;99.90;;;;;;5014208;28;20171;-71
2022/11/30 09:27:13;;;;;;;24.90;15.70;;;7.60;99.90;;;;;;5013491;28;20181;-71
2022/11/30 09:29:38;;;;;;;23.70;14.33;;;7.70;99.90;;;;;;5013412;28;20203;-71
2022/11/30 09:32:04;;;;;;;21.40;14.17;;;7.70;99.90;;;;;;5013511;28;20699;-71
2022/11/30 09:34:30;;;;;;;24.37;14.37;;;7.80;99.90;;;;;;5013874;28;20180;-71
2022/11/30 09:36:55;;;;;;;23.30;14.40;;;7.80;99.90;;;;;;5013856;28;20192;-71
2022/11/30 09:39:21;;;;;;;22.30;13.30;;;7.80;99.90;;;;;;5012285;28;20225;-68
2022/11/30 09:41:56;;;;;;;25.13;14.03;;;7.80;99.90;;;;;;5013498;28;20677;-71
2022/11/30 09:44:33;;;;;;;21.60;14.20;;;7.70;99.90;;;;;;5013669;28;20251;-69
2022/11/30 09:47:14;;;;;;;24.40;14.70;;;7.70;99.90;;;;;;5013102;28;20413;-71
2022/11/30 09:49:44;;;;;;;23.80;14.10;;;7.60;99.90;;;;;;5013048;28;20542;-68
2022/11/30 09:52:19;;;;;;;21.73;14.57;;;7.60;99.90;;;;;;5013165;28;20424;-70
2022/11/30 09:54:46;;;;;;;28.93;15.03;;;7.50;99.90;;;;;;5013297;28;20411;-71
2022/11/30 09:57:24;;;;;;;26.00;14.80;;;7.40;99.90;;;;;;5013074;28;20467;-70
2022/11/30 09:59:56;;;;;;;26.63;15.57;;;7.50;99.90;;;;;;5012253;28;20452;-70
2022/11/30 10:02:29;;;;;;;33.33;17.47;;;7.40;99.90;;;;;;5012692;28;20519;-70
2022/11/30 10:04:55;;;;;;;33.67;17.87;;;7.40;99.90;;;;;;5013287;28;20415;-70
2022/11/30 10:07:43;;;;;;;30.57;17.03;;;7.40;99.90;;;;;;5012842;28;20409;-69
2022/11/30 10:10:19;;;;;;;28.80;16.73;;;7.40;99.90;;;;;;5006519;28;20434;-71
2022/11/30 10:13:02;;;;;;;30.47;17.63;;;7.40;99.90;;;;;;5012228;28;20428;-71
2022/11/30 10:15:40;;;;;;;28.57;18.20;;;7.50;99.90;;;;;;5012992;28;20404;-71
2022/11/30 10:18:18;;;;;;;31.73;17.03;;;7.60;99.90;;;;;;5011796;28;20415;-72
2022/11/30 10:21:10;;;;;;;30.60;17.90;;;7.70;99.90;;;;;;5012410;28;20405;-71
2022/11/30 10:24:22;;;;;;;33.77;17.93;;;7.80;99.90;;;;;;5012376;28;20511;-69
2022/11/30 10:26:55;;;;;;;26.27;16.87;;;7.90;99.90;;;;;;5012495;28;20439;-68
2022/11/30 10:29:34;;;;;;;27.93;15.23;;;8.00;99.90;;;;;;5011815;28;20416;-67
2022/11/30 10:32:09;;;;;;;33.57;16.93;;;8.10;99.90;;;;;;5012267;28;20490;-70
2022/11/30 10:34:35;;;;;;;27.93;16.23;;;8.10;99.90;;;;;;5012180;28;20448;-69
2022/11/30 10:37:27;;;;;;;26.87;16.57;;;8.20;99.90;;;;;;5012523;28;20494;-67
2022/11/30 10:40:19;;;;;;;27.27;16.57;;;8.20;99.90;;;;;;5005654;28;20470;-70
2022/11/30 10:43:11;;;;;;;27.17;14.70;;;8.20;99.90;;;;;;5011806;28;20452;-69
2022/11/30 10:45:41;;;;;;;26.03;15.80;;;8.10;99.90;;;;;;4981592;28;20785;-69
2022/11/30 10:48:15;;;;;;;32.70;16.80;;;8.10;99.90;;;;;;5011928;28;20461;-69
2022/11/30 10:50:41;;;;;;;22.93;15.30;;;8.20;99.90;;;;;;5012476;28;20551;-66
2022/11/30 10:53:10;;;;;;;25.93;15.20;;;8.10;99.90;;;;;;5012427;28;20411;-70
2022/11/30 10:55:40;;;;;;;22.20;13.40;;;8.10;99.90;;;;;;5012426;28;20179;-70
2022/11/30 10:58:14;;;;;;;23.53;14.23;;;8.10;99.90;;;;;;5011806;28;20499;-69
2022/11/30 11:01:06;;;;;;;23.63;13.57;;;8.00;99.90;;;;;;5012101;28;20440;-70
2022/11/30 11:03:32;;;;;;;23.57;14.63;;;8.00;99.90;;;;;;5012144;28;20421;-69
2022/11/30 11:06:08;;;;;;;21.87;13.03;;;8.00;99.90;;;;;;5011655;28;20425;-70
2022/11/30 11:08:34;;;;;;;23.77;14.37;;;7.90;99.90;;;;;;5011334;28;20411;-70
2022/11/30 11:11:00;;;;;;;26.13;14.50;;;7.90;99.90;;;;;;5011839;28;20596;-69
2022/11/30 11:13:38;;;;;;;24.10;13.57;;;8.00;99.90;;;;;;5011804;28;20197;-70
2022/11/30 11:16:08;;;;;;;27.70;15.17;;;7.90;99.90;;;;;;5011925;28;20419;-69
2022/11/30 11:18:35;;;;;;;22.83;13.30;;;7.90;99.90;;;;;;4994291;28;20439;-70
2022/11/30 11:21:04;;;;;;;20.97;11.70;;;7.90;99.90;;;;;;4993576;28;20531;-67
2022/11/30 11:23:36;;;;;;;25.73;17.03;;;8.00;99.90;;;;;;4984817;28;20799;-70
2022/11/30 11:26:05;;;;;;;22.50;13.30;;;8.00;99.90;;;;;;5010825;28;20425;-71
2022/11/30 11:28:33;;;;;;;25.83;14.00;;;8.00;99.90;;;;;;5011057;28;20555;-69
2022/11/30 11:30:58;;;;;;;22.53;13.00;;;8.00;99.90;;;;;;5011488;28;20851;-69
2022/11/30 11:33:28;;;;;;;22.77;14.20;;;8.00;99.90;;;;;;5010908;28;20507;-69
2022/11/30 11:36:23;;;;;;;27.80;15.50;;;8.00;99.90;;;;;;5012204;28;20192;-70
2022/11/30 11:38:49;;;;;;;23.53;15.33;;;7.90;99.90;;;;;;5011515;28;20458;-70
2022/11/30 11:41:19;;;;;;;24.33;15.13;;;8.00;99.90;;;;;;4994058;28;20496;-70
2022/11/30 11:44:03;;;;;;;27.37;15.93;;;8.00;99.90;;;;;;5011531;28;20259;-70
2022/11/30 11:46:30;;;;;;;24.67;13.70;;;7.90;99.90;;;;;;5011569;28;20502;-69
2022/11/30 11:49:20;;;;;;;25.00;14.53;;;7.90;99.90;;;;;;5010473;28;20451;-70
2022/11/30 11:51:46;;;;;;;23.13;13.53;;;7.90;99.90;;;;;;5011492;28;20426;-71
2022/11/30 11:54:30;;;;;;;18.43;12.70;;;8.00;99.90;;;;;;5009502;28;20464;-70
2022/11/30 11:56:58;;;;;;;26.57;12.57;;;8.00;99.90;;;;;;5011311;28;20440;-70
2022/11/30 11:59:32;;;;;;;19.90;12.90;;;8.00;99.90;;;;;;5010267;28;20835;-69
2022/11/30 12:02:20;;;;;;;21.37;12.37;;;8.00;99.90;;;;;;5011469;28;20911;-70
2022/11/30 12:05:06;;;;;;;17.60;11.50;;;8.00;99.90;;;;;;5011187;28;20468;-70
2022/11/30 12:07:35;;;;;;;21.10;11.50;;;8.00;99.90;;;;;;5010763;28;20452;-69
2022/11/30 12:10:25;;;;;;;21.50;13.07;;;8.10;99.90;;;;;;5010427;28;20477;-67
2022/11/30 12:12:54;;;;;;;17.33;12.37;;;8.10;99.90;;;;;;5011601;28;20468;-70
2022/11/30 12:15:35;;;;;;;21.73;13.60;;;8.00;99.90;;;;;;5011104;28;20818;-70
2022/11/30 12:18:16;;;;;;;22.47;13.90;;;8.00;99.90;;;;;;4992764;28;20819;-69
2022/11/30 12:21:05;;;;;;;20.17;12.33;;;8.00;99.90;;;;;;5010638;28;20457;-69
2022/11/30 12:24:13;;;;;;;22.13;12.27;;;8.00;99.90;;;;;;5011192;28;20920;-70
2022/11/30 12:27:00;;;;;;;20.27;11.70;;;8.00;99.90;;;;;;4974102;28;20911;-70
2022/11/30 12:29:38;;;;;;;21.93;12.83;;;7.90;99.90;;;;;;5010784;28;20489;-70
2022/11/30 12:32:55;;;;;;;17.40;11.23;;;7.90;99.90;;;;;;5009759;28;20469;-69
2022/11/30 12:35:33;;;;;;;19.93;12.43;;;7.90;99.90;;;;;;4977259;28;20415;-67
2022/11/30 12:38:17;;;;;;;19.80;12.63;;;7.90;99.90;;;;;;5010650;28;20425;-70
2022/11/30 12:40:55;;;;;;;17.73;12.10;;;7.90;99.90;;;;;;5009416;28;20591;-70
2022/11/30 12:43:36;;;;;;;23.13;13.63;;;7.90;99.90;;;;;;5009786;28;20389;-66
2022/11/30 12:46:21;;;;;;;19.33;12.67;;;7.90;99.90;;;;;;5010579;28;20411;-70
2022/11/30 12:49:05;;;;;;;21.20;11.63;;;7.80;99.90;;;;;;5009329;28;20832;-69
2022/11/30 12:51:39;;;;;;;18.30;12.07;;;7.80;99.90;;;;;;4993509;28;20414;-71
2022/11/30 12:54:38;;;;;;;23.33;12.87;;;7.80;99.90;;;;;;5009374;28;20785;-71
2022/11/30 12:57:16;;;;;;;21.53;12.27;;;7.70;99.90;;;;;;5010835;28;20427;-70
2022/11/30 13:00:10;;;;;;;18.37;11.60;;;7.70;99.90;;;;;;5008988;28;20481;-70
2022/11/30 13:02:53;;;;;;;22.87;13.57;;;7.70;99.90;;;;;;4992964;28;20804;-70
2022/11/30 13:05:45;;;;;;;22.37;13.50;;;7.70;99.90;;;;;;4993120;28;20460;-70
2022/11/30 13:08:19;;;;;;;19.43;12.67;;;7.70;99.90;;;;;;5001396;28;20427;-68
2022/11/30 13:10:48;;;;;;;22.37;13.47;;;7.60;99.90;;;;;;5009238;28;20486;-71
2022/11/30 13:13:24;;;;;;;19.80;13.13;;;7.60;99.90;;;;;;5011327;28;20418;-71
2022/11/30 13:15:50;;;;;;;22.37;13.40;;;7.50;99.90;;;;;;5010788;28;20423;-70
2022/11/30 13:18:21;;;;;;;21.47;12.93;;;7.50;99.90;;;;;;4994007;28;20428;-75
2022/11/30 13:20:54;;;;;;;20.23;14.07;;;7.60;99.90;;;;;;5011410;28;20416;-71
2022/11/30 13:23:38;;;;;;;19.70;13.27;;;7.50;99.90;;;;;;5012141;28;20898;-69
2022/11/30 13:27:01;;;;;;;22.13;12.87;;;7.60;99.90;;;;;;5010984;28;20450;-69
2022/11/30 13:29:33;;;;;;;22.00;13.40;;;7.60;99.90;;;;;;4930497;29;20430;-69
2022/11/30 13:32:10;;;;;;;24.40;14.30;;;7.50;99.90;;;;;;4932943;29;20872;-70
2022/11/30 13:34:35;;;;;;;21.80;13.90;;;7.50;99.90;;;;;;4981296;28;20483;-69
2022/11/30 13:37:10;;;;;;;23.40;12.90;;;7.50;99.90;;;;;;5018106;28;20442;-68
2022/11/30 13:39:44;;;;;;;22.60;13.17;;;7.50;99.90;;;;;;5016296;28;20197;-71
2022/11/30 13:42:22;;;;;;;21.40;12.80;;;7.50;99.90;;;;;;5011929;28;20447;-70
2022/11/30 13:44:47;;;;;;;18.73;11.80;;;7.40;99.90;;;;;;5010681;28;20463;-71
2022/11/30 13:47:15;;;;;;;18.53;12.20;;;7.40;99.90;;;;;;5011197;28;20420;-70
2022/11/30 13:49:41;;;;;;;24.03;13.63;;;7.40;99.90;;;;;;5010631;28;20208;-68
2022/11/30 13:52:12;;;;;;;23.13;12.53;;;7.40;99.90;;;;;;5010063;28;20805;-70
2022/11/30 13:54:40;;;;;;;20.97;12.50;;;7.40;99.90;;;;;;5012688;28;20214;-69
2022/11/30 13:57:29;;;;;;;27.50;13.70;;;7.40;99.90;;;;;;5014494;28;20416;-70
2022/11/30 13:59:59;;;;;;;17.30;11.67;;;7.40;99.90;;;;;;4976241;28;20539;-70
2022/11/30 14:02:42;;;;;;;19.48;13.00;;;7.40;99.90;;;;;;5012678;28;20501;-70
2022/11/30 14:05:17;;;;;;;25.30;12.50;;;7.40;99.90;;;;;;5014332;28;20441;-69
2022/11/30 14:08:05;;;;;;;18.42;12.10;;;7.40;99.90;;;;;;5013141;28;20501;-69
2022/11/30 14:10:34;;;;;;;18.37;11.77;;;7.50;99.90;;;;;;5012738;28;20185;-70
2022/11/30 14:13:23;;;;;;;16.03;10.93;;;7.40;99.90;;;;;;4995597;28;20439;-70
2022/11/30 14:15:49;;;;;;;19.10;11.90;;;7.50;99.90;;;;;;5013494;28;20431;-70
2022/11/30 14:18:29;;;;;;;19.23;11.60;;;7.40;99.90;;;;;;5012677;28;20837;-70
2022/11/30 14:21:11;;;;;;;23.40;11.93;;;7.40;99.90;;;;;;5011671;28;20255;-69
2022/11/30 14:23:54;;;;;;;22.67;13.07;;;7.40;99.90;;;;;;5013323;28;20409;-69
2022/11/30 14:26:27;;;;;;;22.30;12.20;;;7.40;99.90;;;;;;5012970;28;20925;-70
2022/11/30 14:29:15;;;;;;;18.63;11.87;;;7.40;99.90;;;;;;4994968;28;20590;-70